createdAt,value
2023-01-24T00:00:25.176Z,74.49
2023-01-24T00:02:53.160Z,74.30
2023-01-24T00:05:21.255Z,74.44
2023-01-24T00:08:10.792Z,74.20
2023-01-24T00:11:27.399Z,74.42
2023-01-24T00:14:25.892Z,74.37
2023-01-24T00:17:55.313Z,74.42
2023-01-24T00:20:27.601Z,74.39
2023-01-24T00:22:58.412Z,74.36
2023-01-24T00:25:25.459Z,74.27
2023-01-24T00:27:52.668Z,74.50
2023-01-24T00:30:43.261Z,74.54
2023-01-24T00:33:34.727Z,74.58
2023-01-24T00:36:29.634Z,74.63
2023-01-24T00:39:08.055Z,74.64
2023-01-24T00:42:10.573Z,74.69
2023-01-24T00:44:38.883Z,74.49
2023-01-24T00:47:08.970Z,74.61
2023-01-24T00:49:38.743Z,74.58
2023-01-24T00:52:31.142Z,74.59
2023-01-24T00:54:59.252Z,74.28
2023-01-24T00:57:26.569Z,74.54
2023-01-24T00:59:55.359Z,74.38
2023-01-24T01:02:25.302Z,74.43
2023-01-24T01:04:53.678Z,74.45
2023-01-24T01:07:24.277Z,74.66
2023-01-24T01:09:51.467Z,74.55
2023-01-24T01:12:19.292Z,74.45
2023-01-24T01:14:47.251Z,74.38
2023-01-24T01:17:14.856Z,74.46
2023-01-24T01:19:45.998Z,74.37
2023-01-24T01:22:13.371Z,74.47
2023-01-24T01:24:41.630Z,74.52
2023-01-24T01:27:12.590Z,74.56
2023-01-24T01:29:40.354Z,74.76
2023-01-24T01:32:28.943Z,74.73
2023-01-24T01:34:56.965Z,74.65
2023-01-24T01:37:28.163Z,74.53
2023-01-24T01:39:57.000Z,74.67
2023-01-24T01:42:56.698Z,74.57
2023-01-24T01:46:11.167Z,74.77
2023-01-24T01:48:47.755Z,74.64
2023-01-24T01:51:18.935Z,74.75
2023-01-24T01:53:50.946Z,74.97
2023-01-24T01:56:47.903Z,74.70
2023-01-24T01:59:17.353Z,74.81
2023-01-24T02:01:47.043Z,74.86
2023-01-24T02:04:46.203Z,74.89
2023-01-24T02:07:39.217Z,74.74
2023-01-24T02:10:07.542Z,75.17
2023-01-24T02:12:47.089Z,74.86
2023-01-24T02:15:35.819Z,74.92
2023-01-24T02:18:07.149Z,74.97
2023-01-24T02:20:42.799Z,75.14
2023-01-24T02:23:26.017Z,75.26
2023-01-24T02:26:16.989Z,75.03
2023-01-24T02:29:11.758Z,74.91
2023-01-24T02:32:03.481Z,75.30
2023-01-24T02:34:32.602Z,75.38
2023-01-24T02:37:05.300Z,75.32
2023-01-24T02:40:03.817Z,75.44
2023-01-24T02:42:35.536Z,75.27
2023-01-24T02:45:43.487Z,75.43
2023-01-24T02:48:10.627Z,75.44
2023-01-24T02:50:55.963Z,75.57
2023-01-24T02:53:34.235Z,75.57
2023-01-24T02:56:22.590Z,75.64
2023-01-24T02:58:52.083Z,75.51
2023-01-24T03:01:21.226Z,75.49
2023-01-24T03:03:54.049Z,75.43
2023-01-24T03:07:31.499Z,75.35
2023-01-24T03:10:00.066Z,75.51
2023-01-24T03:12:48.113Z,75.55
2023-01-24T03:15:33.851Z,75.80
2023-01-24T03:18:46.816Z,75.80
2023-01-24T03:21:32.821Z,75.43
2023-01-24T03:24:18.881Z,75.91
2023-01-24T03:27:09.930Z,75.79
2023-01-24T03:29:56.062Z,75.91
2023-01-24T03:32:43.118Z,75.97
2023-01-24T03:35:58.151Z,75.92
2023-01-24T03:38:47.865Z,75.75
2023-01-24T03:41:18.059Z,75.92
2023-01-24T03:43:47.763Z,76.02
2023-01-24T03:46:17.156Z,75.97
2023-01-24T03:48:55.909Z,75.87
2023-01-24T03:52:03.239Z,76.09
2023-01-24T03:54:34.413Z,76.00
2023-01-24T03:57:04.990Z,75.99
2023-01-24T03:59:33.391Z,76.05
2023-01-24T04:02:02.130Z,75.82
2023-01-24T04:05:12.065Z,75.67
2023-01-24T04:07:40.419Z,76.04
2023-01-24T04:10:10.878Z,75.91
2023-01-24T04:12:43.014Z,75.92
2023-01-24T04:15:17.806Z,75.85
2023-01-24T04:18:05.911Z,75.67
2023-01-24T04:20:36.226Z,75.54
2023-01-24T04:23:08.303Z,75.98
2023-01-24T04:25:36.056Z,75.92
2023-01-24T04:28:04.398Z,75.73
2023-01-24T04:30:36.006Z,76.08
2023-01-24T04:33:35.414Z,76.12
2023-01-24T04:36:29.638Z,76.24
2023-01-24T04:39:41.268Z,76.08
2023-01-24T04:42:30.393Z,76.36
2023-01-24T04:44:59.941Z,76.25
2023-01-24T04:47:27.452Z,76.11
2023-01-24T04:49:56.372Z,76.15
2023-01-24T04:52:27.210Z,76.14
2023-01-24T04:55:03.808Z,76.19
2023-01-24T04:57:36.594Z,76.20
2023-01-24T05:00:06.828Z,75.88
2023-01-24T05:02:37.124Z,75.76
2023-01-24T05:05:07.322Z,75.92
2023-01-24T05:07:40.157Z,75.86
2023-01-24T05:10:15.237Z,75.94
2023-01-24T05:12:45.092Z,76.01
2023-01-24T05:15:39.350Z,75.69
2023-01-24T05:18:13.278Z,75.82
2023-01-24T05:20:41.912Z,75.87
2023-01-24T05:26:31.022Z,75.99
2023-01-24T05:29:06.861Z,76.00
2023-01-24T05:31:54.794Z,75.87
2023-01-24T05:34:23.365Z,76.07
2023-01-24T05:42:14.449Z,75.93
2023-01-24T05:44:47.348Z,75.91
